Aviation Digital Data Service (ADDS)

Output produced by METARs form (0136 UTC 29 November 2020)
found at http://www.aviationweather.gov/metar/data/
 
METAR text: WIHH 290100Z 29003KT 5000 HZ FEW020 27/23 Q1009 NOSIG
Conditions at: WIHH (HALIM PERDANAKUS, ID) observed 0100 UTC 29 November 2020
Temperature: 27.0°C (81°F)
Dewpoint: 23.0°C (73°F) [RH = 79%]
Pressure (altimeter): 29.79 inches Hg (1009.0 mb)
Winds: from the WNW (290 degrees) at 3 MPH (3 knots; 1.5 m/s)
Visibility: 3 miles ( 5 km)
Ceiling: at least 12,000 feet AGL
Clouds: few clouds at 2000 feet AGL
Weather: HZ  (haze)

METAR text: WIHH 290030Z 30003KT 5000 HZ FEW020 27/23 Q1010 NOSIG
Conditions at: WIHH (HALIM PERDANAKUS, ID) observed 0030 UTC 29 November 2020
Temperature: 27.0°C (81°F)
Dewpoint: 23.0°C (73°F) [RH = 79%]
Pressure (altimeter): 29.82 inches Hg (1010.0 mb)
Winds: from the WNW (300 degrees) at 3 MPH (3 knots; 1.5 m/s)
Visibility: 3 miles ( 5 km)
Ceiling: at least 12,000 feet AGL
Clouds: few clouds at 2000 feet AGL
Weather: HZ  (haze)

METAR text: WIHH 290000Z 29003KT 5000 HZ FEW020 27/23 Q1009 NOSIG
Conditions at: WIHH (HALIM PERDANAKUS, ID) observed 0000 UTC 29 November 2020
Temperature: 27.0°C (81°F)
Dewpoint: 23.0°C (73°F) [RH = 79%]
Pressure (altimeter): 29.79 inches Hg (1009.0 mb)
Winds: from the WNW (290 degrees) at 3 MPH (3 knots; 1.5 m/s)
Visibility: 3 miles ( 5 km)
Ceiling: at least 12,000 feet AGL
Clouds: few clouds at 2000 feet AGL
Weather: HZ  (haze)

METAR text: WIHH 282330Z 00000KT 5000 HZ FEW020 26/23 Q1009 NOSIG
Conditions at: WIHH (HALIM PERDANAKUS, ID) observed 2330 UTC 28 November 2020
Temperature: 26.0°C (79°F)
Dewpoint: 23.0°C (73°F) [RH = 84%]
Pressure (altimeter): 29.79 inches Hg (1009.0 mb)
Winds: calm
Visibility: 3 miles ( 5 km)
Ceiling: at least 12,000 feet AGL
Clouds: few clouds at 2000 feet AGL
Weather: HZ  (haze)

METAR text: WIHH 282300Z 23005KT 5000 HZ FEW020 26/23 Q1008 NOSIG
Conditions at: WIHH (HALIM PERDANAKUS, ID) observed 2300 UTC 28 November 2020
Temperature: 26.0°C (79°F)
Dewpoint: 23.0°C (73°F) [RH = 84%]
Pressure (altimeter): 29.76 inches Hg (1008.0 mb)
Winds: from the SW (230 degrees) at 6 MPH (5 knots; 2.6 m/s)
Visibility: 3 miles ( 5 km)
Ceiling: at least 12,000 feet AGL
Clouds: few clouds at 2000 feet AGL
Weather: HZ  (haze)

METAR text: WIHH 282230Z 24003KT 5000 HZ FEW020 26/23 Q1008 NOSIG
Conditions at: WIHH (HALIM PERDANAKUS, ID) observed 2230 UTC 28 November 2020
Temperature: 26.0°C (79°F)
Dewpoint: 23.0°C (73°F) [RH = 84%]
Pressure (altimeter): 29.76 inches Hg (1008.0 mb)
Winds: from the WSW (240 degrees) at 3 MPH (3 knots; 1.5 m/s)
Visibility: 3 miles ( 5 km)
Ceiling: at least 12,000 feet AGL
Clouds: few clouds at 2000 feet AGL
Weather: HZ  (haze)

METAR text: WIHH 282200Z 29004KT 5000 HZ FEW020 26/23 Q1008 NOSIG
Conditions at: WIHH (HALIM PERDANAKUS, ID) observed 2200 UTC 28 November 2020
Temperature: 26.0°C (79°F)
Dewpoint: 23.0°C (73°F) [RH = 84%]
Pressure (altimeter): 29.76 inches Hg (1008.0 mb)
Winds: from the WNW (290 degrees) at 5 MPH (4 knots; 2.1 m/s)
Visibility: 3 miles ( 5 km)
Ceiling: at least 12,000 feet AGL
Clouds: few clouds at 2000 feet AGL
Weather: HZ  (haze)

METAR text: WIHH 282130Z 00000KT 5000 HZ FEW020 26/23 Q1007 NOSIG
Conditions at: WIHH (HALIM PERDANAKUS, ID) observed 2130 UTC 28 November 2020
Temperature: 26.0°C (79°F)
Dewpoint: 23.0°C (73°F) [RH = 84%]
Pressure (altimeter): 29.73 inches Hg (1007.0 mb)
Winds: calm
Visibility: 3 miles ( 5 km)
Ceiling: at least 12,000 feet AGL
Clouds: few clouds at 2000 feet AGL
Weather: HZ  (haze)

METAR text: WIHH 281600Z 23003KT 5000 -RA SCT018 26/23 Q1010 NOSIG
Conditions at: WIHH (HALIM PERDANAKUS, ID) observed 1600 UTC 28 November 2020
Temperature: 26.0°C (79°F)
Dewpoint: 23.0°C (73°F) [RH = 84%]
Pressure (altimeter): 29.82 inches Hg (1010.0 mb)
Winds: from the SW (230 degrees) at 3 MPH (3 knots; 1.5 m/s)
Visibility: 3 miles ( 5 km)
Ceiling: at least 12,000 feet AGL
Clouds: scattered clouds at 1800 feet AGL
Weather: -RA  (light rain)

METAR text: WIHH 281530Z 20003KT 5000 -RA SCT018 26/23 Q1010 NOSIG
Conditions at: WIHH (HALIM PERDANAKUS, ID) observed 1530 UTC 28 November 2020
Temperature: 26.0°C (79°F)
Dewpoint: 23.0°C (73°F) [RH = 84%]
Pressure (altimeter): 29.82 inches Hg (1010.0 mb)
Winds: from the SSW (200 degrees) at 3 MPH (3 knots; 1.5 m/s)
Visibility: 3 miles ( 5 km)
Ceiling: at least 12,000 feet AGL
Clouds: scattered clouds at 1800 feet AGL
Weather: -RA  (light rain)

METAR text: WIHH 281500Z 07003KT 5000 -RA SCT018 26/23 Q1010 NOSIG
Conditions at: WIHH (HALIM PERDANAKUS, ID) observed 1500 UTC 28 November 2020
Temperature: 26.0°C (79°F)
Dewpoint: 23.0°C (73°F) [RH = 84%]
Pressure (altimeter): 29.82 inches Hg (1010.0 mb)
Winds: from the ENE (70 degrees) at 3 MPH (3 knots; 1.5 m/s)
Visibility: 3 miles ( 5 km)
Ceiling: at least 12,000 feet AGL
Clouds: scattered clouds at 1800 feet AGL
Weather: -RA  (light rain)

METAR text: WIHH 281430Z 14002KT 5000 -RA SCT018 26/24 Q1011 NOSIG
Conditions at: WIHH (HALIM PERDANAKUS, ID) observed 1430 UTC 28 November 2020
Temperature: 26.0°C (79°F)
Dewpoint: 24.0°C (75°F) [RH = 89%]
Pressure (altimeter): 29.85 inches Hg (1011.0 mb)
Winds: from the SE (140 degrees) at 2 MPH (2 knots; 1.0 m/s)
Visibility: 3 miles ( 5 km)
Ceiling: at least 12,000 feet AGL
Clouds: scattered clouds at 1800 feet AGL
Weather: -RA  (light rain)

METAR text: WIHH 281400Z 15003KT 5000 -RA SCT018 26/23 Q1010 NOSIG
Conditions at: WIHH (HALIM PERDANAKUS, ID) observed 1400 UTC 28 November 2020
Temperature: 26.0°C (79°F)
Dewpoint: 23.0°C (73°F) [RH = 84%]
Pressure (altimeter): 29.82 inches Hg (1010.0 mb)
Winds: from the SSE (150 degrees) at 3 MPH (3 knots; 1.5 m/s)
Visibility: 3 miles ( 5 km)
Ceiling: at least 12,000 feet AGL
Clouds: scattered clouds at 1800 feet AGL
Weather: -RA  (light rain)

METAR text: WIHH 281330Z 18002KT 5000 HZ SCT018 26/23 Q1010 RMK RA TO S
Conditions at: WIHH (HALIM PERDANAKUS, ID) observed 1330 UTC 28 November 2020
Temperature: 26.0°C (79°F)
Dewpoint: 23.0°C (73°F) [RH = 84%]
Pressure (altimeter): 29.82 inches Hg (1010.0 mb)
Winds: from the S (180 degrees) at 2 MPH (2 knots; 1.0 m/s)
Visibility: 3 miles ( 5 km)
Ceiling: at least 12,000 feet AGL
Clouds: scattered clouds at 1800 feet AGL
Weather: HZ  (haze)

METAR text: WIHH 281300Z 15005KT 5000 -RA SCT018 26/23 Q1010 NOSIG
Conditions at: WIHH (HALIM PERDANAKUS, ID) observed 1300 UTC 28 November 2020
Temperature: 26.0°C (79°F)
Dewpoint: 23.0°C (73°F) [RH = 84%]
Pressure (altimeter): 29.82 inches Hg (1010.0 mb)
Winds: from the SSE (150 degrees) at 6 MPH (5 knots; 2.6 m/s)
Visibility: 3 miles ( 5 km)
Ceiling: at least 12,000 feet AGL
Clouds: scattered clouds at 1800 feet AGL
Weather: -RA  (light rain)

METAR text: WIHH 281230Z 15005KT 5000 -RA FEW018CB SCT019 27/23 Q1009 RMK CB TO E
Conditions at: WIHH (HALIM PERDANAKUS, ID) observed 1230 UTC 28 November 2020
Temperature: 27.0°C (81°F)
Dewpoint: 23.0°C (73°F) [RH = 79%]
Pressure (altimeter): 29.79 inches Hg (1009.0 mb)
Winds: from the SSE (150 degrees) at 6 MPH (5 knots; 2.6 m/s)
Visibility: 3 miles ( 5 km)
Ceiling: at least 12,000 feet AGL
Clouds: few clouds at 1800 feet AGL
scattered clouds at 1900 feet AGL
Weather: -RA  (light rain)

METAR text: WIHH 281200Z 21006KT 5000 -RA FEW018CB SCT019 28/22 Q1008 RMK CB TO E
Conditions at: WIHH (HALIM PERDANAKUS, ID) observed 1200 UTC 28 November 2020
Temperature: 28.0°C (82°F)
Dewpoint: 22.0°C (72°F) [RH = 70%]
Pressure (altimeter): 29.76 inches Hg (1008.0 mb)
Winds: from the SSW (210 degrees) at 7 MPH (6 knots; 3.1 m/s)
Visibility: 3 miles ( 5 km)
Ceiling: at least 12,000 feet AGL
Clouds: few clouds at 1800 feet AGL
scattered clouds at 1900 feet AGL
Weather: -RA  (light rain)

METAR text: WIHH 281130Z 20006KT 5000 -RA FEW018CB SCT020 28/22 Q1008 RMK CB TO SE
Conditions at: WIHH (HALIM PERDANAKUS, ID) observed 1130 UTC 28 November 2020
Temperature: 28.0°C (82°F)
Dewpoint: 22.0°C (72°F) [RH = 70%]
Pressure (altimeter): 29.76 inches Hg (1008.0 mb)
Winds: from the SSW (200 degrees) at 7 MPH (6 knots; 3.1 m/s)
Visibility: 3 miles ( 5 km)
Ceiling: at least 12,000 feet AGL
Clouds: few clouds at 1800 feet AGL
scattered clouds at 2000 feet AGL
Weather: -RA  (light rain)

METAR text: WIHH 281100Z 18005KT 5000 HZ FEW018CB SCT020 30/22 Q1008 RMK CB AND RA TO SE
Conditions at: WIHH (HALIM PERDANAKUS, ID) observed 1100 UTC 28 November 2020
Temperature: 30.0°C (86°F)
Dewpoint: 22.0°C (72°F) [RH = 62%]
Pressure (altimeter): 29.76 inches Hg (1008.0 mb)
Winds: from the S (180 degrees) at 6 MPH (5 knots; 2.6 m/s)
Visibility: 3 miles ( 5 km)
Ceiling: at least 12,000 feet AGL
Clouds: few clouds at 1800 feet AGL
scattered clouds at 2000 feet AGL
Weather: HZ  (haze)

METAR text: WIHH 281030Z 19005KT 5000 HZ SCT020 30/22 Q1007 RMK RA TO E - S
Conditions at: WIHH (HALIM PERDANAKUS, ID) observed 1030 UTC 28 November 2020
Temperature: 30.0°C (86°F)
Dewpoint: 22.0°C (72°F) [RH = 62%]
Pressure (altimeter): 29.73 inches Hg (1007.0 mb)
Winds: from the S (190 degrees) at 6 MPH (5 knots; 2.6 m/s)
Visibility: 3 miles ( 5 km)
Ceiling: at least 12,000 feet AGL
Clouds: scattered clouds at 2000 feet AGL
Weather: HZ  (haze)

METAR text: WIHH 281000Z 24010KT 5000 HZ SCT020 30/23 Q1007 RMK RA TO NE - S
Conditions at: WIHH (HALIM PERDANAKUS, ID) observed 1000 UTC 28 November 2020
Temperature: 30.0°C (86°F)
Dewpoint: 23.0°C (73°F) [RH = 66%]
Pressure (altimeter): 29.73 inches Hg (1007.0 mb)
Winds: from the WSW (240 degrees) at 12 MPH (10 knots; 5.1 m/s)
Visibility: 3 miles ( 5 km)
Ceiling: at least 12,000 feet AGL
Clouds: scattered clouds at 2000 feet AGL
Weather: HZ  (haze)

METAR text: WIHH 280930Z 27006KT 5000 HZ SCT020 31/23 Q1006 RMK RA TO NE AND S
Conditions at: WIHH (HALIM PERDANAKUS, ID) observed 0930 UTC 28 November 2020
Temperature: 31.0°C (88°F)
Dewpoint: 23.0°C (73°F) [RH = 63%]
Pressure (altimeter): 29.70 inches Hg (1006.0 mb)
Winds: from the W (270 degrees) at 7 MPH (6 knots; 3.1 m/s)
Visibility: 3 miles ( 5 km)
Ceiling: at least 12,000 feet AGL
Clouds: scattered clouds at 2000 feet AGL
Weather: HZ  (haze)

METAR text: WIHH 280900Z 31004KT 5000 HZ SCT020 32/22 Q1006 RMK RA TO NW
Conditions at: WIHH (HALIM PERDANAKUS, ID) observed 0900 UTC 28 November 2020
Temperature: 32.0°C (90°F)
Dewpoint: 22.0°C (72°F) [RH = 56%]
Pressure (altimeter): 29.70 inches Hg (1006.0 mb)
Winds: from the NW (310 degrees) at 5 MPH (4 knots; 2.1 m/s)
Visibility: 3 miles ( 5 km)
Ceiling: at least 12,000 feet AGL
Clouds: scattered clouds at 2000 feet AGL
Weather: HZ  (haze)

METAR text: WIHH 280830Z 02004KT 5000 HZ SCT020 31/23 Q1006 RMK RA TO NW
Conditions at: WIHH (HALIM PERDANAKUS, ID) observed 0830 UTC 28 November 2020
Temperature: 31.0°C (88°F)
Dewpoint: 23.0°C (73°F) [RH = 63%]
Pressure (altimeter): 29.70 inches Hg (1006.0 mb)
Winds: from the NNE (20 degrees) at 5 MPH (4 knots; 2.1 m/s)
Visibility: 3 miles ( 5 km)
Ceiling: at least 12,000 feet AGL
Clouds: scattered clouds at 2000 feet AGL
Weather: HZ  (haze)

METAR text: WIHH 280800Z 04004KT 5000 -RA SCT020 31/24 Q1006 NOSIG
Conditions at: WIHH (HALIM PERDANAKUS, ID) observed 0800 UTC 28 November 2020
Temperature: 31.0°C (88°F)
Dewpoint: 24.0°C (75°F) [RH = 66%]
Pressure (altimeter): 29.70 inches Hg (1006.0 mb)
Winds: from the NE (40 degrees) at 5 MPH (4 knots; 2.1 m/s)
Visibility: 3 miles ( 5 km)
Ceiling: at least 12,000 feet AGL
Clouds: scattered clouds at 2000 feet AGL
Weather: -RA  (light rain)

METAR text: WIHH 280730Z 31003KT 5000 -RA SCT020 32/20 Q1006 NOSIG
Conditions at: WIHH (HALIM PERDANAKUS, ID) observed 0730 UTC 28 November 2020
Temperature: 32.0°C (90°F)
Dewpoint: 20.0°C (68°F) [RH = 49%]
Pressure (altimeter): 29.70 inches Hg (1006.0 mb)
Winds: from the NW (310 degrees) at 3 MPH (3 knots; 1.5 m/s)
Visibility: 3 miles ( 5 km)
Ceiling: at least 12,000 feet AGL
Clouds: scattered clouds at 2000 feet AGL
Weather: -RA  (light rain)

METAR text: WIHH 280700Z 30004KT 5000 HZ SCT020 33/20 Q1007 RMK RA TO SE
Conditions at: WIHH (HALIM PERDANAKUS, ID) observed 0700 UTC 28 November 2020
Temperature: 33.0°C (91°F)
Dewpoint: 20.0°C (68°F) [RH = 46%]
Pressure (altimeter): 29.73 inches Hg (1007.0 mb)
Winds: from the WNW (300 degrees) at 5 MPH (4 knots; 2.1 m/s)
Visibility: 3 miles ( 5 km)
Ceiling: at least 12,000 feet AGL
Clouds: scattered clouds at 2000 feet AGL
Weather: HZ  (haze)

METAR text: WIHH 280630Z 26004KT 5000 HZ SCT020 33/20 Q1007 NOSIG
Conditions at: WIHH (HALIM PERDANAKUS, ID) observed 0630 UTC 28 November 2020
Temperature: 33.0°C (91°F)
Dewpoint: 20.0°C (68°F) [RH = 46%]
Pressure (altimeter): 29.73 inches Hg (1007.0 mb)
Winds: from the W (260 degrees) at 5 MPH (4 knots; 2.1 m/s)
Visibility: 3 miles ( 5 km)
Ceiling: at least 12,000 feet AGL
Clouds: scattered clouds at 2000 feet AGL
Weather: HZ  (haze)

METAR text: WIHH 280600Z 03006KT 6000 SCT020 33/20 Q1008 NOSIG
Conditions at: WIHH (HALIM PERDANAKUS, ID) observed 0600 UTC 28 November 2020
Temperature: 33.0°C (91°F)
Dewpoint: 20.0°C (68°F) [RH = 46%]
Pressure (altimeter): 29.76 inches Hg (1008.0 mb)
Winds: from the NNE (30 degrees) at 7 MPH (6 knots; 3.1 m/s)
Visibility: 4 miles ( 6 km)
Ceiling: at least 12,000 feet AGL
Clouds: scattered clouds at 2000 feet AGL
Weather: no significant weather observed at this time

METAR text: WIHH 280530Z 24005KT 6000 SCT020 33/20 Q1009 NOSIG
Conditions at: WIHH (HALIM PERDANAKUS, ID) observed 0530 UTC 28 November 2020
Temperature: 33.0°C (91°F)
Dewpoint: 20.0°C (68°F) [RH = 46%]
Pressure (altimeter): 29.79 inches Hg (1009.0 mb)
Winds: from the WSW (240 degrees) at 6 MPH (5 knots; 2.6 m/s)
Visibility: 4 miles ( 6 km)
Ceiling: at least 12,000 feet AGL
Clouds: scattered clouds at 2000 feet AGL
Weather: no significant weather observed at this time

METAR text: WIHH 280500Z 06004KT 6000 SCT020 33/20 Q1009 NOSIG
Conditions at: WIHH (HALIM PERDANAKUS, ID) observed 0500 UTC 28 November 2020
Temperature: 33.0°C (91°F)
Dewpoint: 20.0°C (68°F) [RH = 46%]
Pressure (altimeter): 29.79 inches Hg (1009.0 mb)
Winds: from the ENE (60 degrees) at 5 MPH (4 knots; 2.1 m/s)
Visibility: 4 miles ( 6 km)
Ceiling: at least 12,000 feet AGL
Clouds: scattered clouds at 2000 feet AGL
Weather: no significant weather observed at this time

METAR text: WIHH 280430Z 12003KT 6000 FEW022 32/20 Q1010 NOSIG
Conditions at: WIHH (HALIM PERDANAKUS, ID) observed 0430 UTC 28 November 2020
Temperature: 32.0°C (90°F)
Dewpoint: 20.0°C (68°F) [RH = 49%]
Pressure (altimeter): 29.82 inches Hg (1010.0 mb)
Winds: from the ESE (120 degrees) at 3 MPH (3 knots; 1.5 m/s)
Visibility: 4 miles ( 6 km)
Ceiling: at least 12,000 feet AGL
Clouds: few clouds at 2200 feet AGL
Weather: no significant weather observed at this time

METAR text: WIHH 280400Z 18006KT 6000 FEW022 31/19 Q1010 NOSIG
Conditions at: WIHH (HALIM PERDANAKUS, ID) observed 0400 UTC 28 November 2020
Temperature: 31.0°C (88°F)
Dewpoint: 19.0°C (66°F) [RH = 49%]
Pressure (altimeter): 29.82 inches Hg (1010.0 mb)
Winds: from the S (180 degrees) at 7 MPH (6 knots; 3.1 m/s)
Visibility: 4 miles ( 6 km)
Ceiling: at least 12,000 feet AGL
Clouds: few clouds at 2200 feet AGL
Weather: no significant weather observed at this time

METAR text: WIHH 280330Z 19007KT 6000 FEW022 31/20 Q1010 NOSIG
Conditions at: WIHH (HALIM PERDANAKUS, ID) observed 0330 UTC 28 November 2020
Temperature: 31.0°C (88°F)
Dewpoint: 20.0°C (68°F) [RH = 52%]
Pressure (altimeter): 29.82 inches Hg (1010.0 mb)
Winds: from the S (190 degrees) at 8 MPH (7 knots; 3.6 m/s)
Visibility: 4 miles ( 6 km)
Ceiling: at least 12,000 feet AGL
Clouds: few clouds at 2200 feet AGL
Weather: no significant weather observed at this time

METAR text: WIHH 280300Z 15004KT 6000 FEW022 32/22 Q1011 NOSIG
Conditions at: WIHH (HALIM PERDANAKUS, ID) observed 0300 UTC 28 November 2020
Temperature: 32.0°C (90°F)
Dewpoint: 22.0°C (72°F) [RH = 56%]
Pressure (altimeter): 29.85 inches Hg (1011.0 mb)
Winds: from the SSE (150 degrees) at 5 MPH (4 knots; 2.1 m/s)
Visibility: 4 miles ( 6 km)
Ceiling: at least 12,000 feet AGL
Clouds: few clouds at 2200 feet AGL
Weather: no significant weather observed at this time

METAR text: WIHH 280230Z 18005KT 6000 FEW022 30/21 Q1010 NOSIG
Conditions at: WIHH (HALIM PERDANAKUS, ID) observed 0230 UTC 28 November 2020
Temperature: 30.0°C (86°F)
Dewpoint: 21.0°C (70°F) [RH = 59%]
Pressure (altimeter): 29.82 inches Hg (1010.0 mb)
Winds: from the S (180 degrees) at 6 MPH (5 knots; 2.6 m/s)
Visibility: 4 miles ( 6 km)
Ceiling: at least 12,000 feet AGL
Clouds: few clouds at 2200 feet AGL
Weather: no significant weather observed at this time

METAR text: WIHH 280200Z 15003KT 6000 FEW022 29/21 Q1010 NOSIG
Conditions at: WIHH (HALIM PERDANAKUS, ID) observed 0200 UTC 28 November 2020
Temperature: 29.0°C (84°F)
Dewpoint: 21.0°C (70°F) [RH = 62%]
Pressure (altimeter): 29.82 inches Hg (1010.0 mb)
Winds: from the SSE (150 degrees) at 3 MPH (3 knots; 1.5 m/s)
Visibility: 4 miles ( 6 km)
Ceiling: at least 12,000 feet AGL
Clouds: few clouds at 2200 feet AGL
Weather: no significant weather observed at this time

METAR text: WIHH 280130Z 19007KT 6000 FEW020 29/22 Q1011 NOSIG
Conditions at: WIHH (HALIM PERDANAKUS, ID) observed 0130 UTC 28 November 2020
Temperature: 29.0°C (84°F)
Dewpoint: 22.0°C (72°F) [RH = 66%]
Pressure (altimeter): 29.85 inches Hg (1011.0 mb)
Winds: from the S (190 degrees) at 8 MPH (7 knots; 3.6 m/s)
Visibility: 4 miles ( 6 km)
Ceiling: at least 12,000 feet AGL
Clouds: few clouds at 2000 feet AGL
Weather: no significant weather observed at this time

METAR text: WIHH 280100Z 24003KT 5000 HZ FEW020 28/23 Q1010 NOSIG
Conditions at: WIHH (HALIM PERDANAKUS, ID) observed 0100 UTC 28 November 2020
Temperature: 28.0°C (82°F)
Dewpoint: 23.0°C (73°F) [RH = 74%]
Pressure (altimeter): 29.82 inches Hg (1010.0 mb)
Winds: from the WSW (240 degrees) at 3 MPH (3 knots; 1.5 m/s)
Visibility: 3 miles ( 5 km)
Ceiling: at least 12,000 feet AGL
Clouds: few clouds at 2000 feet AGL
Weather: HZ  (haze)

METAR text: WIHH 280030Z 21003KT 5000 HZ FEW020 27/23 Q1010 NOSIG
Conditions at: WIHH (HALIM PERDANAKUS, ID) observed 0030 UTC 28 November 2020
Temperature: 27.0°C (81°F)
Dewpoint: 23.0°C (73°F) [RH = 79%]
Pressure (altimeter): 29.82 inches Hg (1010.0 mb)
Winds: from the SSW (210 degrees) at 3 MPH (3 knots; 1.5 m/s)
Visibility: 3 miles ( 5 km)
Ceiling: at least 12,000 feet AGL
Clouds: few clouds at 2000 feet AGL
Weather: HZ  (haze)

METAR text: WIHH 280000Z 18003KT 5000 HZ FEW020 26/24 Q1010 NOSIG
Conditions at: WIHH (HALIM PERDANAKUS, ID) observed 0000 UTC 28 November 2020
Temperature: 26.0°C (79°F)
Dewpoint: 24.0°C (75°F) [RH = 89%]
Pressure (altimeter): 29.82 inches Hg (1010.0 mb)
Winds: from the S (180 degrees) at 3 MPH (3 knots; 1.5 m/s)
Visibility: 3 miles ( 5 km)
Ceiling: at least 12,000 feet AGL
Clouds: few clouds at 2000 feet AGL
Weather: HZ  (haze)

METAR text: WIHH 272330Z 00000KT 4000 HZ FEW020 26/25 Q1009 NOSIG
Conditions at: WIHH (HALIM PERDANAKUS, ID) observed 2330 UTC 27 November 2020
Temperature: 26.0°C (79°F)
Dewpoint: 25.0°C (77°F) [RH = 94%]
Pressure (altimeter): 29.79 inches Hg (1009.0 mb)
Winds: calm
Visibility: 2.49 miles (4.01 km)
Ceiling: at least 12,000 feet AGL
Clouds: few clouds at 2000 feet AGL
Weather: HZ  (haze)

METAR text: WIHH 272300Z 00000KT 4000 HZ FEW020 25/24 Q1009 NOSIG
Conditions at: WIHH (HALIM PERDANAKUS, ID) observed 2300 UTC 27 November 2020
Temperature: 25.0°C (77°F)
Dewpoint: 24.0°C (75°F) [RH = 94%]
Pressure (altimeter): 29.79 inches Hg (1009.0 mb)
Winds: calm
Visibility: 2.49 miles (4.01 km)
Ceiling: at least 12,000 feet AGL
Clouds: few clouds at 2000 feet AGL
Weather: HZ  (haze)

METAR text: WIHH 272230Z 00000KT 4000 HZ FEW020 25/24 Q1009 NOSIG
Conditions at: WIHH (HALIM PERDANAKUS, ID) observed 2230 UTC 27 November 2020
Temperature: 25.0°C (77°F)
Dewpoint: 24.0°C (75°F) [RH = 94%]
Pressure (altimeter): 29.79 inches Hg (1009.0 mb)
Winds: calm
Visibility: 2.49 miles (4.01 km)
Ceiling: at least 12,000 feet AGL
Clouds: few clouds at 2000 feet AGL
Weather: HZ  (haze)

METAR text: WIHH 272200Z 00000KT 3000 HZ FEW020 25/24 Q1009 NOSIG
Conditions at: WIHH (HALIM PERDANAKUS, ID) observed 2200 UTC 27 November 2020
Temperature: 25.0°C (77°F)
Dewpoint: 24.0°C (75°F) [RH = 94%]
Pressure (altimeter): 29.79 inches Hg (1009.0 mb)
Winds: calm
Visibility: 1.86 miles (2.99 km)
Ceiling: at least 12,000 feet AGL
Clouds: few clouds at 2000 feet AGL
Weather: HZ  (haze)

METAR text: WIHH 272130Z 00000KT 3000 HZ FEW020 25/24 Q1008 NOSIG
Conditions at: WIHH (HALIM PERDANAKUS, ID) observed 2130 UTC 27 November 2020
Temperature: 25.0°C (77°F)
Dewpoint: 24.0°C (75°F) [RH = 94%]
Pressure (altimeter): 29.76 inches Hg (1008.0 mb)
Winds: calm
Visibility: 1.86 miles (2.99 km)
Ceiling: at least 12,000 feet AGL
Clouds: few clouds at 2000 feet AGL
Weather: HZ  (haze)

METAR text: WIHH 272100Z 00000KT 3000 HZ FEW020 25/24 Q1008 NOSIG
Conditions at: WIHH (HALIM PERDANAKUS, ID) observed 2100 UTC 27 November 2020
Temperature: 25.0°C (77°F)
Dewpoint: 24.0°C (75°F) [RH = 94%]
Pressure (altimeter): 29.76 inches Hg (1008.0 mb)
Winds: calm
Visibility: 1.86 miles (2.99 km)
Ceiling: at least 12,000 feet AGL
Clouds: few clouds at 2000 feet AGL
Weather: HZ  (haze)

METAR text: WIHH 271600Z 00000KT 3000 HZ SCT018 25/24 Q1010 NOSIG
Conditions at: WIHH (HALIM PERDANAKUS, ID) observed 1600 UTC 27 November 2020
Temperature: 25.0°C (77°F)
Dewpoint: 24.0°C (75°F) [RH = 94%]
Pressure (altimeter): 29.82 inches Hg (1010.0 mb)
Winds: calm
Visibility: 1.86 miles (2.99 km)
Ceiling: at least 12,000 feet AGL
Clouds: scattered clouds at 1800 feet AGL
Weather: HZ  (haze)

METAR text: WIHH 271530Z 18003KT 3000 -RA BKN018 25/24 Q1011 NOSIG
Conditions at: WIHH (HALIM PERDANAKUS, ID) observed 1530 UTC 27 November 2020
Temperature: 25.0°C (77°F)
Dewpoint: 24.0°C (75°F) [RH = 94%]
Pressure (altimeter): 29.85 inches Hg (1011.0 mb)
Winds: from the S (180 degrees) at 3 MPH (3 knots; 1.5 m/s)
Visibility: 1.86 miles (2.99 km)
Ceiling: 1800 feet AGL
Clouds: broken clouds at 1800 feet AGL
Weather: -RA  (light rain)

METAR text: WIHH 271500Z 15004KT 3000 -RA BKN018 25/25 Q1010 NOSIG
Conditions at: WIHH (HALIM PERDANAKUS, ID) observed 1500 UTC 27 November 2020
Temperature: 25.0°C (77°F)
Dewpoint: 25.0°C (77°F) [RH = 100%]
Pressure (altimeter): 29.82 inches Hg (1010.0 mb)
Winds: from the SSE (150 degrees) at 5 MPH (4 knots; 2.1 m/s)
Visibility: 1.86 miles (2.99 km)
Ceiling: 1800 feet AGL
Clouds: broken clouds at 1800 feet AGL
Weather: -RA  (light rain)

METAR text: WIHH 271430Z 15005KT 3000 -RA BKN018 25/24 Q1010 NOSIG
Conditions at: WIHH (HALIM PERDANAKUS, ID) observed 1430 UTC 27 November 2020
Temperature: 25.0°C (77°F)
Dewpoint: 24.0°C (75°F) [RH = 94%]
Pressure (altimeter): 29.82 inches Hg (1010.0 mb)
Winds: from the SSE (150 degrees) at 6 MPH (5 knots; 2.6 m/s)
Visibility: 1.86 miles (2.99 km)
Ceiling: 1800 feet AGL
Clouds: broken clouds at 1800 feet AGL
Weather: -RA  (light rain)

METAR text: WIHH 271400Z 17005KT 2000 -RA BKN018 25/24 Q1010 NOSIG
Conditions at: WIHH (HALIM PERDANAKUS, ID) observed 1400 UTC 27 November 2020
Temperature: 25.0°C (77°F)
Dewpoint: 24.0°C (75°F) [RH = 94%]
Pressure (altimeter): 29.82 inches Hg (1010.0 mb)
Winds: from the S (170 degrees) at 6 MPH (5 knots; 2.6 m/s)
Visibility: 1.24 miles (2.00 km)
Ceiling: 1800 feet AGL
Clouds: broken clouds at 1800 feet AGL
Weather: -RA  (light rain)

Forecast for: WIHH (HALIM PERDANAKUS, ID)
Text: TAF WIHH 282300Z 2900/3000 21007KT 5000 HZ SCT020
Forecast period: 0000 to 1400 UTC 29 November 2020
Forecast type: FROM: standard forecast or significant change
Winds: from the SSW (210 degrees) at 8 MPH (7 knots; 3.6 m/s)
Visibility: 3 miles (5 km)
Ceiling: at least 12,000 feet AGL
Clouds: scattered clouds at 2000 feet AGL
Weather: HZ  (haze)
Text: TEMPO 2906/2910 28012KT 3000 -TSRA FEW018CB
Forecast period: 0600 to 1000 UTC 29 November 2020
Forecast type: TEMPORARY: The following changes expected for less than half the time period
Winds: from the W (280 degrees) at 14 MPH (12 knots; 6.2 m/s)
Visibility: 1.86 miles (2.99 km)
Ceiling: at least 12,000 feet AGL
Clouds: few clouds at 1800 feet AGL
Weather: -TSRA  (light rain associated with thunderstorm(s))
Text: BECMG 2914/2916 00000KT
Forecast period: 1400 UTC 29 November 2020 to 0000 UTC 30 November 2020
Forecast type: BECOMING: Conditions expected to become as follows by 1600 UTC 29 November 2020
Winds: calm
Visibility: 3 miles (5 km)
Ceiling: at least 12,000 feet AGL
Clouds: scattered clouds at 2000 feet AGL
Weather: HZ  (haze)